• Join FlightAware (Why Join?)
  • Login
  • US Flag GB Flag 
06:29 EDT


 

Airport Tracker/Info


-or-


 

Live Flight TrackerFlight Track Log ✈ SWA1729 ✈ 17-Apr-2013 ✈ KHOU - KELP

Flight Track Log - Related Links

Times and Time Zones

All times are in EDT time to prevent confusion due to time zone crossing. See the SWA1729 flight status page for this flight to view local times or setup timezone preferences in your user account.

Time Position Orientation Groundspeed Altitude Reporting Facility
EDT Latitude Longitude Course Direction KTS MPH feet Rate Location/Type
22:05 29.5744 -95.3519 222° Southwest 196 226 3,900  Level Houston Center
22:06 29.5206 -95.4056 221° Southwest 250 288 6,500 3,060 Climbing Houston Center
22:07 29.5283 -95.4931 276° West 297 342 10,200 2,940 Climbing Houston Center
22:08 29.5803 -95.5817 304° West 331 381 12,600 2,700 Climbing Houston Center
22:09 29.6336 -95.6767 303° West 351 404 15,700 2,880 Climbing Houston Center
22:10 29.7033 -95.7978 304° West 379 436 18,500 2,400 Climbing Houston Center
22:11 29.7642 -95.9047 303° West 396 456 20,700 2,220 Climbing Houston Center
22:12 29.8267 -96.0147 303° West 405 466 23,100 2,820 Climbing Houston Center
22:13 29.8833 -96.1136 303° West 369 425 26,500 2,280 Climbing Houston Center
22:14 29.9356 -96.2172 300° West 376 433 27,800 1,200 Climbing Houston Center
22:15 29.9439 -96.3375 275° West 377 434 29,000 1,500 Climbing Houston Center
22:16 29.9506 -96.4619 274° West 389 448 30,900 1,860 Climbing Houston Center
22:17 29.9586 -96.5808 275° West 381 438 32,900 1,800 Climbing Houston Center
22:18 29.9836 -96.6933 284° West 369 425 34,600 1,440 Climbing Houston Center
22:19 30.0061 -96.8017 284° West 351 404 35,900 300 Climbing Houston Center
22:20 30.0311 -96.9239 283° West 330 380 35,300 -840 Descending Houston Center
22:21 30.0522 -97.0272 283° West 331 381 34,200 -1,080 Descending Houston Center
22:22 30.0739 -97.1319 283° West 335 386 33,200 -960 Descending Houston Center
22:23 30.0961 -97.2383 284° West 339 390 32,300 -600 Descending Houston Center
22:24 30.1183 -97.3458 283° West 339 390 32,000 -180 Descending Houston Center
22:25 30.1406 -97.4567 283° West 347 399 32,000  Level Houston Center
22:26 30.1639 -97.5700 283° West 357 411 32,000  Level Houston Center
22:27 30.1875 -97.6869 283° West 366 421 32,000  Level Houston Center
22:28 30.2108 -97.8050 283° West 371 427 32,000  Level Houston Center
22:29 30.2367 -97.9333 283° West 368 423 32,000  Level Houston Center
22:30 30.2589 -98.0478 283° West 367 422 32,000  Level Houston Center
22:31 30.2828 -98.1611 284° West 364 419 32,000  Level Houston Center
22:32 30.3089 -98.2819 284° West 363 418 32,000  Level Houston Center
22:33 30.3294 -98.3814 283° West 362 417 32,000  Level Houston Center
22:34 30.3533 -98.4942 284° West 360 414 32,000  Level Houston Center
22:35 30.3769 -98.6075 284° West 360 414 32,000  Level Houston Center
22:36 30.4000 -98.7203 283° West 357 411 32,000  Level Houston Center
22:37 30.4233 -98.8339 283° West 357 411 32,000  Level Houston Center
22:38 30.4511 -98.9661 284° West 359 413 32,000  Level Houston Center
22:39 30.4750 -99.0778 284° West 357 411 32,000  Level Houston Center
22:40 30.4978 -99.1836 284° West 355 409 32,000  Level Houston Center
22:41 30.5194 -99.2939 283° West 354 407 32,000  Level Houston Center
22:42 30.5422 -99.4031 284° West 350 403 32,000  Level Houston Center
22:43 30.5639 -99.5133 283° West 352 405 32,000  Level Houston Center
22:44 30.5867 -99.6228 284° West 352 405 32,000  Level Houston Center
22:45 30.6067 -99.7317 282° West 349 402 32,000  Level Houston Center
22:46 30.6289 -99.8411 283° West 349 402 32,000  Level Houston Center
22:48 30.6558 -99.9725 283° West 350 403 32,000  Level Houston Center
22:49 30.6769 -100.0831 283° West 352 405 32,000  Level Houston Center
22:50 30.6981 -100.1936 283° West 353 406 32,000  Level Houston Center
22:51 30.7192 -100.3036 283° West 351 404 32,000  Level Houston Center
22:52 30.7411 -100.4164 283° West 359 413 32,000  Level Houston Center
22:53 30.7628 -100.5275 283° West 354 407 32,000  Level Houston Center
22:54 30.7842 -100.6422 282° West 368 423 32,000  Level Houston Center
22:55 30.8058 -100.7522 283° West 357 411 32,000  Level Houston Center
22:56 30.8261 -100.8644 282° West 359 413 32,000  Level Houston Center
22:57 30.8531 -100.9983 283° West 357 411 32,000  Level Houston Center
22:58 30.8728 -101.1114 282° West 358 412 32,000  Level Houston Center
22:59 30.8956 -101.2197 284° West 350 403 32,000  Level Houston Center
23:00 30.9158 -101.3297 282° West 349 402 32,000  Level Houston Center
23:01 30.9325 -101.4236 282° West 352 405 32,000  Level Albuquerque Center
23:02 30.9522 -101.5342 282° West 350 403 32,000  Level Albuquerque Center
23:03 30.9728 -101.6436 282° West 347 399 32,000  Level Albuquerque Center
23:04 30.9933 -101.7536 282° West 347 399 32,000  Level Albuquerque Center
23:05 31.0131 -101.8650 282° West 349 402 32,000  Level Albuquerque Center
23:06 31.0339 -101.9822 282° West 356 410 32,000  Level Albuquerque Center
23:07 31.0536 -102.0928 282° West 352 405 32,000  Level Albuquerque Center
23:08 31.0731 -102.2025 282° West 348 400 32,000  Level Albuquerque Center
23:09 31.0928 -102.3136 282° West 348 400 32,000  Level Albuquerque Center
23:10 31.1128 -102.4247 282° West 350 403 32,000  Level Albuquerque Center
23:11 31.1361 -102.5597 281° West 349 402 32,000  Level Albuquerque Center
23:12 31.1553 -102.6717 281° West 349 402 32,000  Level Albuquerque Center
23:13 31.1747 -102.7836 282° West 352 405 32,000  Level Albuquerque Center
23:14 31.1939 -102.8956 281° West 351 404 32,000  Level Albuquerque Center
23:15 31.2133 -103.0064 282° West 350 403 32,000  Level Albuquerque Center
23:16 31.2325 -103.1161 282° West 347 399 32,000  Level Albuquerque Center
23:17 31.2508 -103.2256 281° West 345 397 32,000  Level Albuquerque Center
23:18 31.2683 -103.3325 281° West 337 388 32,000  Level Albuquerque Center
23:19 31.2867 -103.4372 282° West 331 381 32,000  Level Albuquerque Center
23:20 31.3069 -103.5617 281° West 327 376 32,000  Level Albuquerque Center
23:21 31.3225 -103.6650 280° West 323 372 32,000  Level Albuquerque Center
23:22 31.3400 -103.7681 281° West 322 371 32,000  Level Albuquerque Center
23:23 31.3583 -103.8733 282° West 325 374 32,000  Level Albuquerque Center
23:24 31.3758 -103.9789 281° West 329 379 32,000  Level Albuquerque Center
23:25 31.3944 -104.0858 282° West 333 383 32,000  Level Albuquerque Center
23:26 31.4133 -104.1953 281° West 339 390 32,000  Level Albuquerque Center
23:27 31.4311 -104.3050 281° West 343 395 32,000  Level Albuquerque Center
23:28 31.4483 -104.4133 281° West 342 394 32,000  Level Albuquerque Center
23:29 31.4644 -104.5389 279° West 336 387 32,000  Level Albuquerque Center
23:30 31.4733 -104.6444 276° West 332 382 32,000  Level Albuquerque Center
23:31 31.4842 -104.7483 277° West 328 377 32,000  Level Albuquerque Center
23:32 31.4953 -104.8517 277° West 325 374 32,000  Level Albuquerque Center
23:33 31.5047 -104.9553 276° West 323 372 32,000 -60 Level Albuquerque Center
23:34 31.5164 -105.0597 277° West 325 374 31,900 -1,440 Descending Albuquerque Center
23:35 31.5267 -105.1650 277° West 328 377 29,100 -2,940 Descending Albuquerque Center
23:36 31.5386 -105.2889 276° West 324 373 25,800 -2,940 Descending Albuquerque Center
23:37 31.5486 -105.3911 277° West 320 368 23,200 -2,640 Descending Albuquerque Center
23:38 31.5597 -105.4989 277° West 331 381 20,500 -2,820 Descending Albuquerque Center
23:39 31.5647 -105.5686 275° West 344 396 18,800 -3,000 Descending Albuquerque Center
23:39 31.5700 -105.6094 279° West 341 392 17,500 -2,760 Descending Albuquerque Center
23:40 31.5742 -105.6761 274° West 337 388 16,000 -2,340 Descending Albuquerque Center
23:40 31.5789 -105.7144 278° West 327 376 15,100 -2,400 Descending Albuquerque Center
23:41 31.5844 -105.7758 276° West 303 349 13,600 -2,460 Descending Albuquerque Center
23:42 31.5914 -105.8111 283° West 306 352 12,600 -2,280 Descending Albuquerque Center
23:42 31.6200 -105.8642 302° West 305 351 11,300 -2,160 Descending Albuquerque Center
23:43 31.6356 -105.8961 300° West 304 350 10,400 -1,320 Descending Albuquerque Center
23:43 31.6608 -105.9461 301° West 289 333 10,000 -1,620 Descending Albuquerque Center
23:44 31.6811 -105.9869 300° West 264 304 8,800 -1,680 Descending Albuquerque Center
23:44 31.6958 -106.0197 298° West 250 288 8,300 -1,260 Descending Albuquerque Center
23:45 31.7156 -106.0578 301° West 251 289 7,500 -1,380 Descending Albuquerque Center
23:45 31.7308 -106.0933 297° West 236 272 6,900 -600 Descending Albuquerque Center
23:46 31.7456 -106.1261 298° West 239 275 6,900 -600 Level Albuquerque Center
23:46 31.7603 -106.1608 297° West 235 270 6,300 -840 Descending Albuquerque Center
23:47 31.7747 -106.1914 299° West 229 264 6,100 -300 Descending Albuquerque Center
23:47 31.7869 -106.2242 294° West 214 246 6,000 -600 Descending Albuquerque Center
23:48 31.7939 -106.2483 289° West 183 211 5,500 -900 Descending Albuquerque Center
23:48 31.7956 -106.2719 275° West 160 184 5,200 -600 Descending Albuquerque Center
23:49 31.7972 -106.3000 274° West 158 182 4,900 -600 Descending Albuquerque Center
23:49 31.7978 -106.3189 272° West 140 161 4,600 -780 Descending Albuquerque Center
23:50 31.8000 -106.3444 276° West 139 160 4,100 -720 Descending Albuquerque Center
23:52 31.8000 -106.3667 270° West  Level FlightAware Approximate
23:59 31.8072 -106.3764 270° West  Level Estimated
00:00 31.8072 -106.3764 270° West  Level Estimated
00:01 31.8072 -106.3764 270° West  Level Estimated
00:02 31.8072 -106.3764 270° West  Level Estimated